Time,TemperatureF,DewpointF,PressureIn,WindDirection,WindDirectionDegrees,WindSpeedMPH,WindSpeedGustMPH,Humidity,HourlyPrecipIn,Conditions,Clouds,dailyrainin,SoftwareType,DateUTC
2013-03-31 00:00:00,40.2,37.5,29.69,SW,217,6.0,0.0,90,0.05,,RA,0.11,VWS V14.01,2013-03-31 04:00:00,
2013-03-31 00:01:00,40.2,37.5,29.69,South,186,6.0,0.0,90,0.05,,-RA,0.11,VWS V14.01,2013-03-31 04:01:00,
2013-03-31 00:02:00,40.2,37.5,29.69,South,191,8.0,0.0,90,0.05,,-RA,0.00,VWS V14.01,2013-03-31 04:02:00,
2013-03-31 00:07:00,40.2,37.5,29.69,SSW,192,7.0,0.0,90,0.05,,-RA,0.00,VWS V14.01,2013-03-31 04:07:00,
2013-03-31 00:12:00,40.2,37.5,29.69,SSW,202,7.0,0.0,90,0.05,,-RA,0.00,VWS V14.01,2013-03-31 04:12:00,
2013-03-31 00:17:00,40.2,37.5,29.68,SSW,205,7.0,0.0,90,0.06,,-RA,0.01,VWS V14.01,2013-03-31 04:17:00,
2013-03-31 00:22:00,40.2,37.5,29.68,SSW,206,11.0,0.0,90,0.06,,-RA,0.01,VWS V14.01,2013-03-31 04:22:00,
2013-03-31 00:27:00,40.2,37.5,29.68,SSW,212,10.0,0.0,90,0.06,,-RA,0.01,VWS V14.01,2013-03-31 04:27:00,
2013-03-31 00:32:00,40.2,37.5,29.68,SSW,199,5.0,0.0,90,0.06,,-RA,0.01,VWS V14.01,2013-03-31 04:32:00,
2013-03-31 00:38:00,40.2,37.5,29.68,SW,224,5.0,0.0,90,0.06,,-RA,0.01,VWS V14.01,2013-03-31 04:38:00,
2013-03-31 00:43:00,40.2,37.5,29.68,South,191,12.0,0.0,90,0.06,,RA,0.01,VWS V14.01,2013-03-31 04:43:00,
2013-03-31 00:48:00,40.2,37.5,29.67,SW,216,11.0,0.0,90,0.02,,RA,0.01,VWS V14.01,2013-03-31 04:48:00,
2013-03-31 00:53:00,40.3,37.6,29.67,SSW,202,10.0,0.0,90,0.03,,RA,0.02,VWS V14.01,2013-03-31 04:53:00,
2013-03-31 00:58:00,40.3,37.6,29.67,SSW,206,6.0,0.0,90,0.03,,RA,0.02,VWS V14.01,2013-03-31 04:58:00,
2013-03-31 01:03:00,40.3,38.7,29.66,SW,222,6.0,0.0,94,0.03,,,0.03,VWS V14.01,2013-03-31 05:03:00,
2013-03-31 01:08:00,40.3,38.7,29.66,SW,217,10.0,0.0,94,0.03,,,0.03,VWS V14.01,2013-03-31 05:08:00,
2013-03-31 01:13:00,40.3,39.0,29.66,SSW,210,11.0,0.0,95,0.03,,,0.03,VWS V14.01,2013-03-31 05:13:00,
2013-03-31 01:18:00,40.3,39.0,29.66,South,171,7.0,0.0,95,0.03,,,0.04,VWS V14.01,2013-03-31 05:18:00,
2013-03-31 01:23:00,40.5,39.2,29.66,SSW,199,10.0,0.0,95,0.03,,,0.04,VWS V14.01,2013-03-31 05:23:00,
2013-03-31 01:28:00,40.5,39.2,29.66,South,186,14.0,0.0,95,0.03,,,0.04,VWS V14.01,2013-03-31 05:28:00,
2013-03-31 01:33:00,40.6,39.3,29.65,South,184,7.0,0.0,95,0.03,,,0.04,VWS V14.01,2013-03-31 05:33:00,
2013-03-31 01:38:00,40.6,39.3,29.65,South,191,7.0,0.0,95,0.04,,,0.05,VWS V14.01,2013-03-31 05:38:00,
2013-03-31 01:43:00,40.6,39.3,29.65,South,191,9.0,0.0,95,0.04,,,0.05,VWS V14.01,2013-03-31 05:43:00,
2013-03-31 01:48:00,40.8,39.5,29.65,South,179,2.0,0.0,95,0.04,,,0.05,VWS V14.01,2013-03-31 05:48:00,
2013-03-31 01:53:00,40.8,39.5,29.65,SSW,205,12.0,0.0,95,0.03,,,0.05,VWS V14.01,2013-03-31 05:53:00,
2013-03-31 01:58:00,40.8,39.5,29.65,SW,216,10.0,0.0,95,0.03,,,0.05,VWS V14.01,2013-03-31 05:58:00,
2013-03-31 02:03:00,40.6,39.3,29.64,SSW,192,13.0,0.0,95,0.02,,-RA,0.05,VWS V14.01,2013-03-31 06:03:00,
2013-03-31 02:08:00,40.6,39.5,29.64,SSW,193,8.0,0.0,96,0.02,,-RA,0.05,VWS V14.01,2013-03-31 06:08:00,
2013-03-31 02:13:00,40.8,39.8,29.64,SSW,198,7.0,0.0,96,0.02,,-RA,0.05,VWS V14.01,2013-03-31 06:13:00,
2013-03-31 02:18:00,40.8,39.8,29.62,SSW,199,5.0,0.0,96,0.02,,-RA,0.06,VWS V14.01,2013-03-31 06:18:00,
2013-03-31 02:23:00,40.8,39.8,29.62,SSW,200,7.0,0.0,96,0.02,,-RA,0.06,VWS V14.01,2013-03-31 06:23:00,
2013-03-31 02:28:00,40.8,39.5,29.62,SSW,202,10.0,0.0,95,0.02,,-RA,0.06,VWS V14.01,2013-03-31 06:28:00,
2013-03-31 02:33:00,40.8,39.5,29.62,SSW,206,7.0,0.0,95,0.01,,-RA,0.06,VWS V14.01,2013-03-31 06:33:00,
2013-03-31 02:38:00,40.8,39.5,29.62,SSW,205,11.0,0.0,95,0.01,,-RA,0.06,VWS V14.01,2013-03-31 06:38:00,
2013-03-31 02:44:00,40.8,39.5,29.62,South,182,3.0,0.0,95,0.01,,OVC021,0.06,VWS V14.01,2013-03-31 06:44:00,
2013-03-31 02:49:00,40.8,39.5,29.61,SSW,205,6.0,0.0,95,0.01,,OVC021,0.06,VWS V14.01,2013-03-31 06:49:00,
2013-03-31 02:54:00,40.8,39.5,29.61,South,191,7.0,0.0,95,0.01,,OVC021,0.06,VWS V14.01,2013-03-31 06:54:00,
2013-03-31 02:59:00,40.9,39.6,29.61,SW,220,10.0,0.0,95,0.02,,OVC021,0.07,VWS V14.01,2013-03-31 06:59:00,
2013-03-31 03:04:00,40.9,39.6,29.60,SW,220,5.0,0.0,95,0.02,,,0.07,VWS V14.01,2013-03-31 07:04:00,
2013-03-31 03:09:00,40.9,39.6,29.60,SSW,200,5.0,0.0,95,0.02,,,0.07,VWS V14.01,2013-03-31 07:09:00,
2013-03-31 03:14:00,40.9,39.6,29.60,SSW,202,4.0,0.0,95,0.03,,,0.08,VWS V14.01,2013-03-31 07:14:00,
2013-03-31 03:19:00,40.9,39.6,29.60,South,182,0.0,0.0,95,0.02,,,0.08,VWS V14.01,2013-03-31 07:19:00,
2013-03-31 03:24:00,40.8,39.5,29.60,SW,222,7.0,0.0,95,0.02,,OVC005,0.08,VWS V14.01,2013-03-31 07:24:00,
2013-03-31 03:29:00,40.6,39.3,29.59,SW,227,0.0,0.0,95,0.03,,OVC005,0.09,VWS V14.01,2013-03-31 07:29:00,
2013-03-31 03:34:00,40.3,38.7,29.59,WSW,237,2.0,0.0,94,0.03,,OVC005,0.09,VWS V14.01,2013-03-31 07:34:00,
2013-03-31 03:39:00,40.2,38.6,29.59,SW,222,0.0,0.0,94,0.03,,OVC005,0.09,VWS V14.01,2013-03-31 07:39:00,
2013-03-31 03:44:00,40.2,38.6,29.59,SW,234,0.0,0.0,94,0.03,,,0.09,VWS V14.01,2013-03-31 07:44:00,
2013-03-31 03:49:00,40.2,38.6,29.59,WSW,239,8.0,0.0,94,0.03,,,0.09,VWS V14.01,2013-03-31 07:49:00,
2013-03-31 03:55:00,39.9,38.3,29.59,WSW,254,5.0,0.0,94,0.03,,,0.09,VWS V14.01,2013-03-31 07:55:00,
2013-03-31 04:00:00,39.8,38.2,29.59,SW,230,1.0,0.0,94,0.02,,,0.09,VWS V14.01,2013-03-31 08:00:00,
2013-03-31 04:05:00,39.8,38.2,29.59,WSW,239,0.0,0.0,94,0.02,,,0.09,VWS V14.01,2013-03-31 08:05:00,
2013-03-31 04:10:00,39.8,38.2,29.59,WSW,237,0.0,0.0,94,0.02,,,0.09,VWS V14.01,2013-03-31 08:10:00,
2013-03-31 04:15:00,39.8,38.2,29.58,WSW,237,0.0,0.0,94,0.01,,,0.09,VWS V14.01,2013-03-31 08:15:00,
2013-03-31 04:20:00,39.8,38.2,29.58,West,261,0.0,0.0,94,0.01,,,0.09,VWS V14.01,2013-03-31 08:20:00,
2013-03-31 04:25:00,39.8,38.2,29.58,WSW,256,0.0,0.0,94,0.01,,,0.09,VWS V14.01,2013-03-31 08:25:00,
2013-03-31 04:30:00,39.3,37.7,29.58,SW,229,0.0,0.0,94,0.00,,,0.09,VWS V14.01,2013-03-31 08:30:00,
2013-03-31 04:35:00,39.2,37.6,29.58,SSW,199,0.0,0.0,94,0.00,,,0.09,VWS V14.01,2013-03-31 08:35:00,
2013-03-31 04:40:00,38.9,37.3,29.58,SSW,205,0.0,0.0,94,0.00,,,0.09,VWS V14.01,2013-03-31 08:40:00,
2013-03-31 04:45:00,38.9,37.3,29.57,SW,230,0.0,0.0,94,0.00,,,0.09,VWS V14.01,2013-03-31 08:45:00,
2013-03-31 04:50:00,38.8,37.2,29.57,WSW,246,0.0,0.0,94,0.00,,,0.09,VWS V14.01,2013-03-31 08:50:00,
2013-03-31 04:55:00,38.6,37.0,29.57,WSW,257,0.0,0.0,94,0.00,,,0.09,VWS V14.01,2013-03-31 08:55:00,
2013-03-31 05:00:00,38.6,37.0,29.57,WSW,244,0.0,0.0,94,0.00,,,0.09,VWS V14.01,2013-03-31 09:00:00,
2013-03-31 05:05:00,38.6,37.0,29.57,WSW,237,3.0,0.0,94,0.00,,,0.09,VWS V14.01,2013-03-31 09:05:00,
2013-03-31 05:10:00,38.6,37.0,29.57,SW,230,0.0,0.0,94,0.00,,,0.09,VWS V14.01,2013-03-31 09:10:00,
2013-03-31 05:16:00,38.5,36.7,29.57,WSW,256,0.0,0.0,93,0.00,,,0.09,VWS V14.01,2013-03-31 09:16:00,
2013-03-31 05:21:00,38.5,36.7,29.57,WSW,251,0.0,0.0,93,0.00,,,0.09,VWS V14.01,2013-03-31 09:21:00,
2013-03-31 05:26:00,38.3,36.5,29.57,WSW,251,0.0,0.0,93,0.00,,,0.09,VWS V14.01,2013-03-31 09:26:00,
2013-03-31 05:31:00,38.3,36.5,29.57,SW,233,0.0,0.0,93,0.00,,,0.09,VWS V14.01,2013-03-31 09:31:00,
2013-03-31 05:36:00,38.2,36.4,29.57,SW,234,0.0,0.0,93,0.00,,,0.09,VWS V14.01,2013-03-31 09:36:00,
2013-03-31 05:41:00,38.2,36.4,29.57,WSW,256,0.0,0.0,93,0.00,,,0.09,VWS V14.01,2013-03-31 09:41:00,
2013-03-31 05:46:00,38.2,36.4,29.57,WSW,250,0.0,0.0,93,0.00,,,0.09,VWS V14.01,2013-03-31 09:46:00,
2013-03-31 05:52:00,38.0,36.2,29.57,West,270,0.0,0.0,93,0.00,,,0.09,VWS V14.01,2013-03-31 09:52:00,
2013-03-31 05:57:00,37.9,36.1,29.57,WSW,256,0.0,0.0,93,0.00,,,0.09,VWS V14.01,2013-03-31 09:57:00,
2013-03-31 06:02:00,37.9,36.1,29.56,West,271,0.0,0.0,93,0.00,,,0.09,VWS V14.01,2013-03-31 10:02:00,
2013-03-31 06:07:00,37.8,36.2,29.56,West,272,0.0,0.0,94,0.00,,,0.09,VWS V14.01,2013-03-31 10:07:00,
2013-03-31 06:12:00,37.6,36.0,29.56,West,263,0.0,0.0,94,0.00,,,0.09,VWS V14.01,2013-03-31 10:12:00,
2013-03-31 06:17:00,37.5,35.9,29.56,WNW,294,0.0,0.0,94,0.00,,,0.09,VWS V14.01,2013-03-31 10:17:00,
2013-03-31 06:22:00,37.0,35.4,29.56,West,270,0.0,0.0,94,0.00,,,0.09,VWS V14.01,2013-03-31 10:22:00,
2013-03-31 06:27:00,36.9,35.3,29.56,West,271,0.0,0.0,94,0.00,,,0.09,VWS V14.01,2013-03-31 10:27:00,
2013-03-31 06:32:00,36.8,35.2,29.56,SW,232,0.0,0.0,94,0.00,,,0.09,VWS V14.01,2013-03-31 10:32:00,
2013-03-31 06:37:00,36.3,34.7,29.56,WSW,251,0.0,0.0,94,0.00,,,0.09,VWS V14.01,2013-03-31 10:37:00,
2013-03-31 06:43:00,36.3,34.7,29.56,WSW,240,0.0,0.0,94,0.00,,,0.09,VWS V14.01,2013-03-31 10:43:00,
2013-03-31 06:48:00,36.0,34.4,29.56,West,265,0.0,0.0,94,0.00,,,0.09,VWS V14.01,2013-03-31 10:48:00,
2013-03-31 06:53:00,35.8,34.2,29.56,West,272,0.0,0.0,94,0.00,,,0.09,VWS V14.01,2013-03-31 10:53:00,
2013-03-31 06:58:00,35.6,34.0,29.56,SW,227,0.0,0.0,94,0.00,,,0.09,VWS V14.01,2013-03-31 10:58:00,
2013-03-31 07:03:00,35.5,34.0,29.56,WSW,256,6.0,0.0,94,0.00,,,0.09,VWS V14.01,2013-03-31 11:03:00,
2013-03-31 07:08:00,35.5,34.0,29.56,West,271,0.0,0.0,94,0.00,,,0.09,VWS V14.01,2013-03-31 11:08:00,
2013-03-31 07:13:00,35.3,33.8,29.56,WSW,247,0.0,0.0,94,0.00,,,0.09,VWS V14.01,2013-03-31 11:13:00,
2013-03-31 07:18:00,35.2,33.7,29.56,WSW,257,0.0,0.0,94,0.00,,,0.09,VWS V14.01,2013-03-31 11:18:00,
2013-03-31 07:23:00,35.0,33.5,29.56,SSW,212,0.0,0.0,94,0.00,,,0.09,VWS V14.01,2013-03-31 11:23:00,
2013-03-31 07:28:00,35.0,33.5,29.56,WSW,244,0.0,0.0,94,0.00,,,0.09,VWS V14.01,2013-03-31 11:28:00,
2013-03-31 07:33:00,34.9,33.3,29.56,SSW,208,0.0,0.0,94,0.00,,,0.09,VWS V14.01,2013-03-31 11:33:00,
2013-03-31 07:38:00,34.9,33.3,29.56,SSW,208,0.0,0.0,94,0.00,,,0.09,VWS V14.01,2013-03-31 11:38:00,
2013-03-31 07:44:00,34.7,33.2,29.56,SSW,208,0.0,0.0,94,0.00,,,0.09,VWS V14.01,2013-03-31 11:44:00,
2013-03-31 07:49:00,34.7,33.2,29.56,SW,217,0.0,0.0,94,0.00,,,0.09,VWS V14.01,2013-03-31 11:49:00,
2013-03-31 07:54:00,34.7,33.2,29.56,SW,220,0.0,0.0,94,0.00,,,0.09,VWS V14.01,2013-03-31 11:54:00,
2013-03-31 07:59:00,34.7,33.2,29.56,West,260,0.0,0.0,94,0.00,,,0.09,VWS V14.01,2013-03-31 11:59:00,
2013-03-31 08:04:00,34.6,32.8,29.57,SW,223,5.0,0.0,93,0.00,,,0.09,VWS V14.01,2013-03-31 12:04:00,
2013-03-31 08:09:00,34.4,32.6,29.57,WSW,239,0.0,0.0,93,0.00,,,0.09,VWS V14.01,2013-03-31 12:09:00,
2013-03-31 08:14:00,34.4,32.6,29.58,WSW,254,0.0,0.0,93,0.00,,,0.09,VWS V14.01,2013-03-31 12:14:00,
2013-03-31 08:19:00,34.4,32.6,29.58,SW,216,0.0,0.0,93,0.00,,,0.09,VWS V14.01,2013-03-31 12:19:00,
2013-03-31 08:24:00,34.3,32.5,29.58,SW,215,0.0,0.0,93,0.00,,,0.09,VWS V14.01,2013-03-31 12:24:00,
2013-03-31 08:29:00,34.4,32.6,29.57,SW,229,0.0,0.0,93,0.00,,,0.09,VWS V14.01,2013-03-31 12:29:00,
2013-03-31 08:34:00,34.4,32.9,29.57,SW,229,0.0,0.0,94,0.00,,,0.09,VWS V14.01,2013-03-31 12:34:00,
2013-03-31 08:40:00,34.6,33.0,29.57,SW,233,0.0,0.0,94,0.00,,,0.09,VWS V14.01,2013-03-31 12:40:00,
2013-03-31 08:45:00,34.6,33.0,29.57,SW,229,0.0,0.0,94,0.00,,,0.09,VWS V14.01,2013-03-31 12:45:00,
2013-03-31 08:50:00,34.7,33.2,29.57,SW,217,0.0,0.0,94,0.00,,,0.09,VWS V14.01,2013-03-31 12:50:00,
2013-03-31 08:55:00,34.9,33.3,29.57,SW,217,5.0,0.0,94,0.00,,,0.09,VWS V14.01,2013-03-31 12:55:00,
2013-03-31 09:00:00,35.2,33.7,29.56,SSW,213,5.0,0.0,94,0.00,,,0.09,VWS V14.01,2013-03-31 13:00:00,
2013-03-31 09:05:00,35.2,33.7,29.56,SSW,213,1.0,0.0,94,0.00,,,0.09,VWS V14.01,2013-03-31 13:05:00,
2013-03-31 09:10:00,35.3,33.8,29.56,SSW,206,0.0,0.0,94,0.00,,,0.09,VWS V14.01,2013-03-31 13:10:00,
2013-03-31 09:15:00,35.3,33.8,29.55,WSW,239,0.0,0.0,94,0.00,,,0.09,VWS V14.01,2013-03-31 13:15:00,
2013-03-31 09:20:00,35.3,33.8,29.55,SW,229,0.0,0.0,94,0.00,,,0.09,VWS V14.01,2013-03-31 13:20:00,
2013-03-31 09:25:00,35.3,33.8,29.55,SW,227,5.0,0.0,94,0.00,,,0.09,VWS V14.01,2013-03-31 13:25:00,
2013-03-31 09:30:00,35.5,34.0,29.54,SSW,208,5.0,0.0,94,0.00,,,0.09,VWS V14.01,2013-03-31 13:30:00,
2013-03-31 09:35:00,35.6,34.0,29.54,SSW,202,6.0,0.0,94,0.00,,,0.09,VWS V14.01,2013-03-31 13:35:00,
2013-03-31 09:40:00,35.8,34.2,29.54,SW,229,5.0,0.0,94,0.00,,,0.09,VWS V14.01,2013-03-31 13:40:00,
2013-03-31 09:45:00,35.9,34.6,29.53,SSW,205,8.0,0.0,95,0.00,,,0.09,VWS V14.01,2013-03-31 13:45:00,
2013-03-31 09:50:00,36.0,34.7,29.53,WSW,244,7.0,0.0,95,0.00,,,0.09,VWS V14.01,2013-03-31 13:50:00,
2013-03-31 09:55:00,36.2,34.9,29.53,SSW,202,3.0,0.0,95,0.00,,,0.09,VWS V14.01,2013-03-31 13:55:00,
2013-03-31 10:01:00,36.3,35.0,29.52,SSW,192,7.0,0.0,95,0.00,,,0.09,VWS V14.01,2013-03-31 14:01:00,
2013-03-31 10:06:00,36.3,35.0,29.52,South,191,11.0,0.0,95,0.00,,,0.09,VWS V14.01,2013-03-31 14:06:00,
2013-03-31 10:11:00,36.3,35.0,29.52,South,191,5.0,0.0,95,0.00,,,0.09,VWS V14.01,2013-03-31 14:11:00,
2013-03-31 10:16:00,36.6,35.3,29.52,SSW,199,13.0,0.0,95,0.00,,,0.09,VWS V14.01,2013-03-31 14:16:00,
2013-03-31 10:21:00,36.6,35.3,29.52,SW,230,6.0,0.0,95,0.00,,,0.09,VWS V14.01,2013-03-31 14:21:00,
2013-03-31 10:26:00,36.6,35.3,29.52,SSW,193,6.0,0.0,95,0.00,,,0.09,VWS V14.01,2013-03-31 14:26:00,
2013-03-31 10:32:00,36.9,35.6,29.52,SW,229,5.0,0.0,95,0.00,,,0.09,VWS V14.01,2013-03-31 14:32:00,
2013-03-31 10:37:00,36.9,35.9,29.52,SSW,202,5.0,0.0,96,0.00,,,0.09,VWS V14.01,2013-03-31 14:37:00,
2013-03-31 10:42:00,37.0,36.0,29.52,SW,215,2.0,0.0,96,0.00,,,0.09,VWS V14.01,2013-03-31 14:42:00,
2013-03-31 10:47:00,37.0,36.0,29.52,SW,224,6.0,0.0,96,0.00,,,0.09,VWS V14.01,2013-03-31 14:47:00,
2013-03-31 10:52:00,37.0,36.2,29.52,SW,219,6.0,0.0,97,0.00,,,0.09,VWS V14.01,2013-03-31 14:52:00,
2013-03-31 10:57:00,37.0,36.2,29.52,SSW,195,9.0,0.0,97,0.00,,,0.09,VWS V14.01,2013-03-31 14:57:00,
2013-03-31 11:02:00,37.2,36.4,29.52,SSW,208,6.0,0.0,97,0.00,,,0.09,VWS V14.01,2013-03-31 15:02:00,
2013-03-31 11:07:00,37.2,36.4,29.52,SSW,203,7.0,0.0,97,0.00,,,0.09,VWS V14.01,2013-03-31 15:07:00,
2013-03-31 11:12:00,37.2,36.4,29.52,WSW,237,2.0,0.0,97,0.00,,,0.09,VWS V14.01,2013-03-31 15:12:00,
2013-03-31 11:17:00,37.2,36.4,29.52,SSW,209,0.0,0.0,97,0.00,,,0.09,VWS V14.01,2013-03-31 15:17:00,
2013-03-31 11:22:00,37.2,36.4,29.52,SW,229,6.0,0.0,97,0.00,,,0.09,VWS V14.01,2013-03-31 15:22:00,
2013-03-31 11:27:00,37.2,36.4,29.52,SSW,198,10.0,0.0,97,0.00,,,0.09,VWS V14.01,2013-03-31 15:27:00,
2013-03-31 11:32:00,37.5,36.7,29.51,SW,222,8.0,0.0,97,0.00,,,0.09,VWS V14.01,2013-03-31 15:32:00,
2013-03-31 11:38:00,37.5,36.7,29.51,SW,233,10.0,0.0,97,0.00,,,0.09,VWS V14.01,2013-03-31 15:38:00,
2013-03-31 11:43:00,37.5,36.7,29.51,West,275,5.0,0.0,97,0.00,,,0.09,VWS V14.01,2013-03-31 15:43:00,
2013-03-31 11:48:00,37.0,36.2,29.52,West,277,8.0,0.0,97,0.00,,,0.09,VWS V14.01,2013-03-31 15:48:00,
2013-03-31 11:53:00,36.9,36.1,29.52,WSW,256,14.0,0.0,97,0.00,,,0.09,VWS V14.01,2013-03-31 15:53:00,
2013-03-31 11:58:00,36.9,36.1,29.52,SW,215,9.0,0.0,97,0.00,,,0.09,VWS V14.01,2013-03-31 15:58:00,
2013-03-31 12:03:00,36.9,36.1,29.52,West,274,7.0,0.0,97,0.00,,,0.09,VWS V14.01,2013-03-31 16:03:00,
2013-03-31 12:08:00,36.5,35.7,29.52,WSW,237,10.0,0.0,97,0.00,,,0.09,VWS V14.01,2013-03-31 16:08:00,
2013-03-31 12:13:00,36.2,35.4,29.52,SW,215,11.0,0.0,97,0.00,,,0.09,VWS V14.01,2013-03-31 16:13:00,
2013-03-31 12:18:00,36.0,35.2,29.52,SW,217,11.0,0.0,97,0.00,,,0.09,VWS V14.01,2013-03-31 16:18:00,
2013-03-31 12:24:00,36.3,35.5,29.52,West,263,7.0,0.0,97,0.00,,,0.09,VWS V14.01,2013-03-31 16:24:00,
2013-03-31 12:29:00,36.2,35.4,29.52,SW,229,6.0,0.0,97,0.00,,,0.09,VWS V14.01,2013-03-31 16:29:00,
2013-03-31 12:34:00,36.2,35.4,29.52,WSW,237,5.0,0.0,97,0.00,,,0.09,VWS V14.01,2013-03-31 16:34:00,
2013-03-31 12:39:00,35.9,35.1,29.52,SSW,203,19.0,0.0,97,0.00,,,0.09,VWS V14.01,2013-03-31 16:39:00,
2013-03-31 12:44:00,35.9,35.1,29.52,SW,215,10.0,0.0,97,0.00,,,0.09,VWS V14.01,2013-03-31 16:44:00,
2013-03-31 12:49:00,35.9,35.1,29.52,WSW,237,9.0,0.0,97,0.00,,,0.09,VWS V14.01,2013-03-31 16:49:00,
2013-03-31 12:54:00,35.9,35.1,29.52,SW,236,6.0,0.0,97,0.00,,,0.09,VWS V14.01,2013-03-31 16:54:00,
2013-03-31 12:59:00,36.2,35.4,29.52,SW,226,12.0,0.0,97,0.00,,,0.09,VWS V14.01,2013-03-31 16:59:00,
2013-03-31 13:04:00,36.3,35.5,29.52,SW,227,12.0,0.0,97,0.00,,,0.09,VWS V14.01,2013-03-31 17:04:00,
2013-03-31 13:09:00,36.5,36.0,29.52,SSW,209,7.0,0.0,98,0.00,,,0.09,VWS V14.01,2013-03-31 17:09:00,
2013-03-31 13:14:00,36.5,36.0,29.52,SSW,202,10.0,0.0,98,0.00,,,0.09,VWS V14.01,2013-03-31 17:14:00,
2013-03-31 13:19:00,36.5,36.0,29.52,SW,220,4.0,0.0,98,0.00,,,0.09,VWS V14.01,2013-03-31 17:19:00,
2013-03-31 13:24:00,36.2,35.7,29.52,SW,224,6.0,0.0,98,0.00,,,0.09,VWS V14.01,2013-03-31 17:24:00,
2013-03-31 13:29:00,36.3,35.8,29.51,SW,217,7.0,0.0,98,0.00,,,0.09,VWS V14.01,2013-03-31 17:29:00,
2013-03-31 13:34:00,36.6,36.1,29.51,SW,233,11.0,0.0,98,0.00,,,0.09,VWS V14.01,2013-03-31 17:34:00,
2013-03-31 13:40:00,36.8,36.3,29.51,SW,230,12.0,0.0,98,0.00,,,0.09,VWS V14.01,2013-03-31 17:40:00,
2013-03-31 13:45:00,37.0,36.5,29.51,SW,230,5.0,0.0,98,0.00,,,0.09,VWS V14.01,2013-03-31 17:45:00,
2013-03-31 13:50:00,37.2,36.7,29.51,SW,216,10.0,0.0,98,0.00,,,0.09,VWS V14.01,2013-03-31 17:50:00,
2013-03-31 13:55:00,37.5,37.0,29.51,SW,217,6.0,0.0,98,0.00,,,0.09,VWS V14.01,2013-03-31 17:55:00,
2013-03-31 14:00:00,37.9,36.9,29.50,SSW,203,13.0,0.0,96,0.00,,,0.09,VWS V14.01,2013-03-31 18:00:00,
2013-03-31 14:05:00,38.2,37.2,29.50,South,189,11.0,0.0,96,0.00,,,0.09,VWS V14.01,2013-03-31 18:05:00,
2013-03-31 14:10:00,38.5,37.5,29.50,SSW,206,10.0,0.0,96,0.00,,,0.09,VWS V14.01,2013-03-31 18:10:00,
2013-03-31 14:15:00,38.6,37.6,29.51,SSW,205,0.0,0.0,96,0.00,,,0.09,VWS V14.01,2013-03-31 18:15:00,
2013-03-31 14:20:00,39.2,38.2,29.51,SSW,206,7.0,0.0,96,0.00,,,0.09,VWS V14.01,2013-03-31 18:20:00,
2013-03-31 14:25:00,39.3,38.3,29.51,SW,215,13.0,0.0,96,0.00,,,0.09,VWS V14.01,2013-03-31 18:25:00,
2013-03-31 14:30:00,39.3,38.3,29.50,SW,233,8.0,0.0,96,0.00,,,0.09,VWS V14.01,2013-03-31 18:30:00,
2013-03-31 14:35:00,39.3,38.3,29.50,South,179,7.0,0.0,96,0.00,,,0.09,VWS V14.01,2013-03-31 18:35:00,
2013-03-31 14:40:00,39.6,38.6,29.50,SSW,212,3.0,0.0,96,0.00,,,0.09,VWS V14.01,2013-03-31 18:40:00,
2013-03-31 14:45:00,39.6,33.6,29.50,SW,229,10.0,0.0,79,0.00,,,0.09,VWS V14.01,2013-03-31 18:45:00,
2013-03-31 14:50:00,39.9,33.9,29.50,SSW,198,10.0,0.0,79,0.00,,,0.09,VWS V14.01,2013-03-31 18:50:00,
2013-03-31 14:56:00,40.3,34.3,29.50,South,185,16.0,0.0,79,0.00,,,0.09,VWS V14.01,2013-03-31 18:56:00,
2013-03-31 15:01:00,40.2,34.2,29.50,SW,222,11.0,0.0,79,0.00,,,0.09,VWS V14.01,2013-03-31 19:01:00,
2013-03-31 15:06:00,39.8,33.8,29.50,SW,219,6.0,0.0,79,0.00,,,0.09,VWS V14.01,2013-03-31 19:06:00,
2013-03-31 15:11:00,39.8,33.8,29.50,SSW,212,12.0,0.0,79,0.00,,,0.09,VWS V14.01,2013-03-31 19:11:00,
2013-03-31 15:12:00,56.9,56.3,29.75,SW,221,0.0,0.0,98,0.00,,,0.57,VWS V14.01,2013-03-31 19:12:00,
2013-03-31 15:16:00,39.8,32.9,29.49,South,171,7.0,0.0,76,0.00,,,0.09,VWS V14.01,2013-03-31 19:16:00,
2013-03-31 15:21:00,40.6,33.6,29.49,SW,216,6.0,0.0,76,0.00,,,0.09,VWS V14.01,2013-03-31 19:21:00,
2013-03-31 15:26:00,40.6,33.3,29.49,SSW,212,11.0,0.0,75,0.00,,,0.09,VWS V14.01,2013-03-31 19:26:00,
2013-03-31 15:31:00,40.6,33.0,29.49,SSW,212,12.0,0.0,74,0.00,,,0.09,VWS V14.01,2013-03-31 19:31:00,
2013-03-31 15:36:00,40.6,33.0,29.49,SSW,202,14.0,0.0,74,0.00,,,0.09,VWS V14.01,2013-03-31 19:36:00,
2013-03-31 15:41:00,40.6,33.0,29.49,SSW,206,4.0,0.0,74,0.00,,,0.09,VWS V14.01,2013-03-31 19:41:00,
2013-03-31 15:46:00,41.1,33.5,29.49,SW,215,14.0,0.0,74,0.00,,,0.09,VWS V14.01,2013-03-31 19:46:00,
2013-03-31 15:51:00,41.2,33.2,29.49,SSW,199,11.0,0.0,73,0.00,,,0.09,VWS V14.01,2013-03-31 19:51:00,
2013-03-31 15:56:00,41.9,33.9,29.49,SW,215,5.0,0.0,73,0.00,,,0.09,VWS V14.01,2013-03-31 19:56:00,
2013-03-31 16:01:00,42.5,34.5,29.49,SSW,210,12.0,0.0,73,0.00,,OVC075,0.09,VWS V14.01,2013-03-31 20:01:00,
2013-03-31 16:06:00,42.8,34.8,29.49,SSW,209,12.0,0.0,73,0.00,,OVC075,0.09,VWS V14.01,2013-03-31 20:06:00,
2013-03-31 16:11:00,42.8,34.8,29.49,WSW,239,10.0,0.0,73,0.00,,OVC075,0.09,VWS V14.01,2013-03-31 20:11:00,
2013-03-31 16:17:00,42.2,34.2,29.49,WSW,246,6.0,0.0,73,0.00,,OVC075,0.09,VWS V14.01,2013-03-31 20:17:00,
2013-03-31 16:22:00,41.9,32.8,29.49,SW,234,10.0,0.0,70,0.00,,OVC080,0.09,VWS V14.01,2013-03-31 20:22:00,
2013-03-31 16:27:00,41.9,32.8,29.49,SW,217,12.0,0.0,70,0.00,,OVC080,0.09,VWS V14.01,2013-03-31 20:27:00,
2013-03-31 16:32:00,41.3,32.3,29.49,West,265,8.0,0.0,70,0.00,,OVC080,0.09,VWS V14.01,2013-03-31 20:32:00,
2013-03-31 16:37:00,41.3,32.3,29.49,SSW,209,9.0,0.0,70,0.00,,OVC080,0.09,VWS V14.01,2013-03-31 20:37:00,
2013-03-31 16:42:00,39.9,32.0,29.49,SW,234,12.0,0.0,73,0.00,,OVC080,0.09,VWS V14.01,2013-03-31 20:42:00,
2013-03-31 16:47:00,39.8,32.5,29.50,SW,223,5.0,0.0,75,0.00,,OVC080,0.09,VWS V14.01,2013-03-31 20:47:00,
2013-03-31 16:52:00,39.3,32.0,29.50,SW,236,2.0,0.0,75,0.00,,OVC080,0.09,VWS V14.01,2013-03-31 20:52:00,
2013-03-31 16:57:00,39.2,32.0,29.50,South,179,4.0,0.0,75,0.00,,OVC080,0.09,VWS V14.01,2013-03-31 20:57:00,
2013-03-31 17:02:00,39.2,32.3,29.50,WNW,295,7.0,0.0,76,0.00,,-RA,0.09,VWS V14.01,2013-03-31 21:02:00,
2013-03-31 17:07:00,39.1,32.2,29.50,WSW,243,6.0,0.0,76,0.00,,-RA,0.09,VWS V14.01,2013-03-31 21:07:00,
2013-03-31 17:12:00,39.1,33.5,29.50,SSW,212,5.0,0.0,80,0.00,,-RA,0.09,VWS V14.01,2013-03-31 21:12:00,
2013-03-31 17:17:00,39.1,33.8,29.50,SW,224,7.0,0.0,81,0.00,,-RA,0.09,VWS V14.01,2013-03-31 21:17:00,
2013-03-31 17:22:00,37.9,32.6,29.50,SW,236,5.0,0.0,81,0.01,,-RA,0.10,VWS V14.01,2013-03-31 21:22:00,
2013-03-31 17:27:00,37.6,32.3,29.50,WSW,243,4.0,0.0,81,0.01,,-RA,0.10,VWS V14.01,2013-03-31 21:27:00,
2013-03-31 17:33:00,37.5,32.2,29.50,SW,229,2.0,0.0,81,0.01,,-RA,0.10,VWS V14.01,2013-03-31 21:33:00,
2013-03-31 17:38:00,37.2,31.9,29.50,WNW,295,14.0,0.0,81,0.01,,-RA,0.10,VWS V14.01,2013-03-31 21:38:00,
2013-03-31 17:43:00,36.5,33.6,29.50,West,268,0.0,0.0,89,0.02,,-RA,0.11,VWS V14.01,2013-03-31 21:43:00,
2013-03-31 17:48:00,36.2,33.3,29.51,WSW,256,0.0,0.0,89,0.03,,-RA,0.12,VWS V14.01,2013-03-31 21:48:00,
2013-03-31 17:53:00,36.2,33.3,29.51,WNW,287,9.0,0.0,89,0.03,,-RA,0.12,VWS V14.01,2013-03-31 21:53:00,
2013-03-31 17:58:00,36.2,33.8,29.51,WSW,257,0.0,0.0,91,0.03,,-RA,0.12,VWS V14.01,2013-03-31 21:58:00,
2013-03-31 18:03:00,36.0,33.6,29.51,South,176,0.0,0.0,91,0.03,,-RA,0.12,VWS V14.01,2013-03-31 22:03:00,
2013-03-31 18:08:00,35.9,33.5,29.51,West,260,0.0,0.0,91,0.03,,-RA,0.12,VWS V14.01,2013-03-31 22:08:00,
2013-03-31 18:13:00,35.6,33.2,29.51,West,267,0.0,0.0,91,0.03,,-RA,0.12,VWS V14.01,2013-03-31 22:13:00,
2013-03-31 18:18:00,35.5,33.1,29.52,SW,229,0.0,0.0,91,0.03,,-RA,0.12,VWS V14.01,2013-03-31 22:18:00,
2013-03-31 18:23:00,35.3,32.9,29.52,WSW,251,6.0,0.0,91,0.02,,-RA,0.12,VWS V14.01,2013-03-31 22:23:00,
2013-03-31 18:29:00,35.2,32.6,29.52,WSW,244,14.0,0.0,90,0.02,,-RA,0.12,VWS V14.01,2013-03-31 22:29:00,
2013-03-31 18:34:00,35.0,32.4,29.52,NW,320,6.0,0.0,90,0.02,,-RA,0.12,VWS V14.01,2013-03-31 22:34:00,
2013-03-31 18:39:00,35.0,32.4,29.52,WSW,246,5.0,0.0,90,0.02,,-RA,0.12,VWS V14.01,2013-03-31 22:39:00,
2013-03-31 18:44:00,35.2,30.6,29.52,West,264,1.0,0.0,83,0.01,,OVC030,0.12,VWS V14.01,2013-03-31 22:44:00,
2013-03-31 18:49:00,35.2,30.3,29.52,WNW,295,2.0,0.0,82,0.00,,OVC030,0.12,VWS V14.01,2013-03-31 22:49:00,
2013-03-31 18:54:00,35.2,30.3,29.52,West,274,5.0,0.0,82,0.00,,OVC030,0.12,VWS V14.01,2013-03-31 22:54:00,
2013-03-31 18:59:00,35.3,30.4,29.52,WSW,247,3.0,0.0,82,0.00,,OVC030,0.12,VWS V14.01,2013-03-31 22:59:00,
2013-03-31 19:04:00,35.3,30.4,29.53,SSW,210,10.0,0.0,82,0.00,,OVC047,0.12,VWS V14.01,2013-03-31 23:04:00,
2013-03-31 19:09:00,35.5,30.9,29.53,WSW,258,10.0,0.0,83,0.00,,OVC047,0.12,VWS V14.01,2013-03-31 23:09:00,
2013-03-31 19:14:00,35.3,30.7,29.53,WSW,256,0.0,0.0,83,0.00,,OVC047,0.12,VWS V14.01,2013-03-31 23:14:00,
2013-03-31 19:19:00,35.3,30.4,29.53,West,278,0.0,0.0,82,0.00,,OVC048,0.12,VWS V14.01,2013-03-31 23:19:00,
2013-03-31 19:25:00,35.3,30.4,29.53,WNW,282,0.0,0.0,82,0.00,,OVC048,0.12,VWS V14.01,2013-03-31 23:25:00,
2013-03-31 19:30:00,35.2,30.3,29.54,SSW,203,1.0,0.0,82,0.00,,OVC048,0.12,VWS V14.01,2013-03-31 23:30:00,
2013-03-31 19:35:00,35.2,30.3,29.54,NW,312,0.0,0.0,82,0.00,,OVC048,0.12,VWS V14.01,2013-03-31 23:35:00,
2013-03-31 19:40:00,35.2,30.3,29.54,NW,320,10.0,0.0,82,0.00,,OVC060,0.12,VWS V14.01,2013-03-31 23:40:00,
2013-03-31 19:45:00,35.0,30.1,29.56,NW,312,12.0,0.0,82,0.00,,OVC060,0.12,VWS V14.01,2013-03-31 23:45:00,
2013-03-31 19:50:00,34.0,27.2,29.56,NW,312,0.0,0.0,76,0.01,,OVC060,0.13,VWS V14.01,2013-03-31 23:50:00,
2013-03-31 19:55:00,34.0,27.2,29.56,NW,312,0.0,0.0,76,0.01,,OVC060,0.13,VWS V14.01,2013-03-31 23:55:00,
2013-03-31 20:00:00,32.5,25.8,29.58,West,281,0.0,0.0,76,0.01,,OVC060,0.13,VWS V14.01,2013-04-01 00:00:00,
2013-03-31 20:05:00,32.1,25.4,29.58,WNW,298,6.0,0.0,76,0.01,,OVC060,0.13,VWS V14.01,2013-04-01 00:05:00,
2013-03-31 20:10:00,31.9,25.8,29.58,North,359,17.0,0.0,78,0.01,,OVC060,0.13,VWS V14.01,2013-04-01 00:10:00,
2013-03-31 20:15:00,31.5,25.4,29.60,North,356,8.0,0.0,78,0.01,,OVC060,0.13,VWS V14.01,2013-04-01 00:15:00,
2013-03-31 20:20:00,31.2,23.2,29.60,WNW,287,16.0,0.0,72,0.01,,OVC070,0.13,VWS V14.01,2013-04-01 00:20:00,
2013-03-31 20:25:00,31.2,23.2,29.60,NW,325,10.0,0.0,72,0.01,,OVC070,0.13,VWS V14.01,2013-04-01 00:25:00,
2013-03-31 20:30:00,31.0,22.7,29.60,WNW,301,19.0,0.0,71,0.01,,OVC070,0.13,VWS V14.01,2013-04-01 00:30:00,
2013-03-31 20:36:00,31.0,22.7,29.60,NNE,13,7.0,0.0,71,0.01,,OVC070,0.13,VWS V14.01,2013-04-01 00:36:00,
2013-03-31 20:41:00,31.0,22.4,29.60,NW,308,14.0,0.0,70,0.01,,OVC095,0.13,VWS V14.01,2013-04-01 00:41:00,
2013-03-31 20:46:00,30.9,22.3,29.62,West,275,7.0,0.0,70,0.01,,OVC095,0.13,VWS V14.01,2013-04-01 00:46:00,
2013-03-31 20:51:00,30.7,21.1,29.62,NW,320,11.0,0.0,67,0.00,,OVC095,0.13,VWS V14.01,2013-04-01 00:51:00,
2013-03-31 20:56:00,30.7,21.8,29.62,WNW,299,6.0,0.0,69,0.00,,OVC095,0.13,VWS V14.01,2013-04-01 00:56:00,
2013-03-31 21:01:00,30.6,22.0,29.62,WSW,237,4.0,0.0,70,0.00,,OVC095,0.13,VWS V14.01,2013-04-01 01:01:00,
2013-03-31 21:06:00,30.4,21.8,29.62,North,0,13.0,0.0,70,0.00,,OVC095,0.13,VWS V14.01,2013-04-01 01:06:00,
2013-03-31 21:11:00,30.3,21.0,29.62,North,354,3.0,0.0,68,0.00,,OVC095,0.13,VWS V14.01,2013-04-01 01:11:00,
2013-03-31 21:16:00,30.1,20.5,29.63,WNW,288,14.0,0.0,67,0.00,,OVC095,0.13,VWS V14.01,2013-04-01 01:16:00,
2013-03-31 21:23:00,29.8,20.2,29.63,NW,318,0.0,0.0,67,0.00,,OVC095,0.13,VWS V14.01,2013-04-01 01:23:00,
2013-03-31 21:28:00,29.7,20.1,29.63,WNW,301,13.0,0.0,67,0.00,,OVC095,0.13,VWS V14.01,2013-04-01 01:28:00,
2013-03-31 21:34:00,29.5,19.2,29.63,WNW,291,16.0,0.0,65,0.00,,OVC095,0.13,VWS V14.01,2013-04-01 01:34:00,
2013-03-31 21:39:00,29.4,19.5,29.63,WSW,257,6.0,0.0,66,0.00,,OVC095,0.13,VWS V14.01,2013-04-01 01:39:00,
2013-03-31 21:44:00,29.3,18.6,29.63,WNW,292,6.0,0.0,64,0.00,,OVC095,0.13,VWS V14.01,2013-04-01 01:44:00,
2013-03-31 21:49:00,29.1,18.1,29.65,North,352,5.0,0.0,63,0.00,,OVC095,0.13,VWS V14.01,2013-04-01 01:49:00,
2013-03-31 21:55:00,29.0,17.6,29.65,NW,316,0.0,0.0,62,0.00,,OVC095,0.13,VWS V14.01,2013-04-01 01:55:00,
2013-03-31 22:02:00,28.8,17.8,29.65,WNW,282,16.0,0.0,63,0.00,,OVC095,0.13,VWS V14.01,2013-04-01 02:02:00,
2013-03-31 22:07:00,28.8,17.8,29.65,West,272,3.0,0.0,63,0.00,,OVC095,0.13,VWS V14.01,2013-04-01 02:07:00,
2013-03-31 22:12:00,28.8,17.8,29.65,NW,320,10.0,0.0,63,0.00,,OVC095,0.13,VWS V14.01,2013-04-01 02:12:00,
2013-03-31 22:17:00,28.7,17.7,29.66,NNW,332,12.0,0.0,63,0.00,,OVC095,0.13,VWS V14.01,2013-04-01 02:17:00,
2013-03-31 22:22:00,28.7,18.4,29.66,SW,236,3.0,0.0,65,0.00,,OVC095,0.13,VWS V14.01,2013-04-01 02:22:00,
2013-03-31 22:28:00,28.5,18.6,29.66,NW,325,0.0,0.0,66,0.00,,OVC095,0.13,VWS V14.01,2013-04-01 02:28:00,
2013-03-31 22:33:00,28.5,18.2,29.67,NW,318,0.0,0.0,65,0.00,,OVC095,0.13,VWS V14.01,2013-04-01 02:33:00,
2013-03-31 22:38:00,28.4,17.8,29.67,WNW,299,10.0,0.0,64,0.00,,OVC095,0.13,VWS V14.01,2013-04-01 02:38:00,
2013-03-31 22:43:00,28.2,17.6,29.67,NNW,344,7.0,0.0,64,0.00,,OVC035,0.13,VWS V14.01,2013-04-01 02:43:00,
2013-03-31 22:48:00,28.1,16.4,29.68,North,350,11.0,0.0,61,0.00,,OVC035,0.13,VWS V14.01,2013-04-01 02:48:00,
2013-03-31 22:53:00,27.9,17.3,29.68,NW,308,0.0,0.0,64,0.00,,OVC035,0.13,VWS V14.01,2013-04-01 02:53:00,
2013-03-31 22:58:00,27.9,18.0,29.68,WNW,298,0.0,0.0,66,0.00,,OVC035,0.13,VWS V14.01,2013-04-01 02:58:00,
2013-03-31 23:04:00,27.9,18.4,29.68,NW,320,0.0,0.0,67,0.00,,BKN035,0.13,VWS V14.01,2013-04-01 03:04:00,
2013-03-31 23:10:00,27.9,17.7,29.68,NW,326,7.0,0.0,65,0.00,,BKN035,0.13,VWS V14.01,2013-04-01 03:10:00,
2013-03-31 23:15:00,27.9,18.0,29.68,NW,320,0.0,0.0,66,0.00,,BKN035,0.13,VWS V14.01,2013-04-01 03:15:00,
2013-03-31 23:20:00,27.8,17.2,29.68,North,350,0.0,0.0,64,0.00,,BKN035,0.13,VWS V14.01,2013-04-01 03:20:00,
2013-03-31 23:28:00,27.6,17.0,29.68,WNW,302,12.0,0.0,64,0.00,,BKN035,0.13,VWS V14.01,2013-04-01 03:28:00,
2013-03-31 23:33:00,27.6,16.7,29.68,NW,320,7.0,0.0,63,0.00,,BKN035,0.13,VWS V14.01,2013-04-01 03:33:00,
2013-03-31 23:38:00,27.5,17.3,29.68,NW,312,0.0,0.0,65,0.00,,BKN035,0.13,VWS V14.01,2013-04-01 03:38:00,
2013-03-31 23:49:00,27.3,17.8,29.69,West,265,0.0,0.0,67,0.00,,BKN041,0.13,VWS V14.01,2013-04-01 03:49:00,
2013-03-31 23:58:00,27.3,17.5,29.69,West,280,4.0,0.0,66,0.00,,BKN041,0.13,VWS V14.01,2013-04-01 03:58:00,